createdAt,value
2018-07-31T00:00:50.671Z,3.57
2018-07-31T00:03:19.231Z,4.33
2018-07-31T00:05:47.746Z,4.97
2018-07-31T00:08:16.247Z,4.37
2018-07-31T00:10:44.954Z,4.00
2018-07-31T00:13:13.497Z,3.27
2018-07-31T00:15:42.013Z,3.87
2018-07-31T00:18:10.528Z,4.03
2018-07-31T00:20:39.188Z,4.77
2018-07-31T00:23:07.873Z,3.20
2018-07-31T00:25:36.366Z,4.67
2018-07-31T00:28:04.923Z,3.70
2018-07-31T00:30:33.466Z,3.33
2018-07-31T00:33:01.971Z,3.10
2018-07-31T00:35:30.824Z,3.13
2018-07-31T00:37:59.356Z,3.30
2018-07-31T00:40:27.958Z,4.03
2018-07-31T00:42:56.464Z,8.83
2018-07-31T00:45:25.009Z,3.97
2018-07-31T00:47:53.586Z,3.80
2018-07-31T00:50:22.121Z,4.17
2018-07-31T00:52:50.811Z,3.37
2018-07-31T00:55:19.413Z,3.00
2018-07-31T00:57:48.056Z,3.20
2018-07-31T01:00:16.746Z,3.53
2018-07-31T01:02:45.274Z,3.00
2018-07-31T01:05:13.913Z,3.23
2018-07-31T01:07:42.451Z,3.20
2018-07-31T01:10:10.965Z,3.27
2018-07-31T01:12:39.451Z,3.03
2018-07-31T01:15:07.964Z,4.13
2018-07-31T01:17:36.457Z,3.37
2018-07-31T01:20:05.402Z,2.63
2018-07-31T01:22:33.922Z,3.00
2018-07-31T01:25:02.480Z,2.80
2018-07-31T01:27:30.990Z,3.83
2018-07-31T01:29:59.488Z,2.83
2018-07-31T01:32:27.975Z,2.70
2018-07-31T01:34:56.470Z,2.40
2018-07-31T01:37:25.007Z,2.57
2018-07-31T01:39:53.685Z,2.77
2018-07-31T01:42:22.182Z,3.07
2018-07-31T01:44:50.761Z,2.80
2018-07-31T01:47:19.259Z,2.50
2018-07-31T01:49:47.918Z,3.87
2018-07-31T01:52:16.427Z,3.93
2018-07-31T01:54:45.497Z,3.80
2018-07-31T01:57:13.988Z,2.80
2018-07-31T01:59:42.521Z,3.10
2018-07-31T02:02:11.012Z,4.67
2018-07-31T02:04:39.561Z,4.17
2018-07-31T02:07:08.110Z,3.63
2018-07-31T02:09:36.599Z,3.77
2018-07-31T02:12:05.177Z,3.33
2018-07-31T02:14:33.692Z,3.37
2018-07-31T02:17:02.218Z,6.50
2018-07-31T02:19:30.385Z,3.67
2018-07-31T02:21:58.914Z,3.67
2018-07-31T02:24:27.412Z,3.80
2018-07-31T02:26:55.930Z,4.03
2018-07-31T02:30:27.529Z,3.20
2018-07-31T02:32:56.033Z,3.53
2018-07-31T02:35:24.582Z,3.53
2018-07-31T02:37:53.196Z,3.10
2018-07-31T02:40:21.723Z,4.33
2018-07-31T02:42:50.237Z,3.57
2018-07-31T02:45:18.902Z,3.63
2018-07-31T02:47:47.427Z,3.20
2018-07-31T02:50:15.930Z,3.73
2018-07-31T02:52:44.472Z,3.57
2018-07-31T02:55:12.978Z,3.47
2018-07-31T02:57:42.058Z,3.97
2018-07-31T03:00:11.587Z,3.30
2018-07-31T03:02:40.147Z,4.50
2018-07-31T03:05:10.685Z,3.90
2018-07-31T03:07:39.198Z,4.17
2018-07-31T03:10:08.984Z,2.97
2018-07-31T03:12:37.484Z,3.70
2018-07-31T03:15:07.303Z,3.80
2018-07-31T03:17:35.837Z,3.00
2018-07-31T03:20:04.773Z,3.00
2018-07-31T03:22:33.650Z,6.40
2018-07-31T03:25:02.216Z,3.17
2018-07-31T03:27:30.722Z,2.93
2018-07-31T03:29:59.320Z,2.90
2018-07-31T03:32:28.507Z,3.50
2018-07-31T03:34:57.012Z,2.97
2018-07-31T03:37:25.681Z,3.10
2018-07-31T03:39:54.613Z,3.90
2018-07-31T03:42:23.963Z,3.60
2018-07-31T03:44:52.460Z,3.20
2018-07-31T03:47:21.122Z,3.30
2018-07-31T03:49:49.628Z,2.47
2018-07-31T03:52:18.237Z,2.87
2018-07-31T03:54:46.717Z,5.07
2018-07-31T03:57:15.249Z,2.83
2018-07-31T03:59:43.936Z,2.87
2018-07-31T04:02:12.523Z,3.03
2018-07-31T04:04:41.036Z,3.23
2018-07-31T04:07:09.597Z,3.30
2018-07-31T04:09:38.116Z,3.60
2018-07-31T04:12:06.686Z,2.60
2018-07-31T04:14:35.269Z,3.63
2018-07-31T04:17:03.860Z,2.47
2018-07-31T04:19:32.375Z,3.27
2018-07-31T04:22:00.897Z,2.50
2018-07-31T04:24:29.425Z,3.27
2018-07-31T04:26:57.914Z,3.73
2018-07-31T04:29:26.463Z,2.53
2018-07-31T04:31:54.978Z,2.97
2018-07-31T04:34:23.477Z,2.20
2018-07-31T04:36:52.044Z,3.77
2018-07-31T04:39:20.552Z,2.60
2018-07-31T04:41:49.035Z,2.50
2018-07-31T04:44:17.573Z,2.57
2018-07-31T04:46:46.082Z,3.10
2018-07-31T04:49:14.599Z,3.80
2018-07-31T04:51:43.190Z,3.90
2018-07-31T04:54:11.740Z,4.00
2018-07-31T04:56:39.967Z,2.80
2018-07-31T04:59:08.532Z,3.40
2018-07-31T05:01:37.112Z,3.57
2018-07-31T05:04:05.609Z,4.43
2018-07-31T05:06:34.196Z,2.73
2018-07-31T05:09:02.866Z,3.70
2018-07-31T05:11:31.413Z,4.30
2018-07-31T05:13:59.933Z,3.80
2018-07-31T05:16:28.520Z,2.57
2018-07-31T05:18:57.032Z,3.60
2018-07-31T05:21:25.576Z,4.33
2018-07-31T05:23:54.070Z,2.93
2018-07-31T05:26:22.644Z,3.10
2018-07-31T05:28:51.230Z,3.77
2018-07-31T05:31:19.763Z,2.90
2018-07-31T05:33:48.296Z,3.40
2018-07-31T05:36:16.846Z,2.83
2018-07-31T05:38:45.469Z,2.97
2018-07-31T05:41:13.938Z,2.77
2018-07-31T05:43:42.493Z,3.37
2018-07-31T05:46:11.161Z,2.40
2018-07-31T05:48:39.706Z,3.57
2018-07-31T05:51:08.265Z,2.33
2018-07-31T05:53:36.767Z,2.90
2018-07-31T05:56:05.488Z,2.17
2018-07-31T05:58:34.057Z,2.63
2018-07-31T06:01:02.551Z,3.53
2018-07-31T06:03:31.158Z,2.27
2018-07-31T06:05:59.792Z,2.30
2018-07-31T06:08:28.467Z,2.63
2018-07-31T06:10:57.012Z,2.00
2018-07-31T06:13:25.565Z,2.30
2018-07-31T06:15:54.108Z,1.67
2018-07-31T06:18:22.712Z,2.23
2018-07-31T06:20:51.231Z,2.43
2018-07-31T06:23:19.883Z,2.47
2018-07-31T06:25:48.403Z,2.33
2018-07-31T06:28:16.976Z,2.87
2018-07-31T06:30:45.476Z,2.20
2018-07-31T06:33:13.956Z,3.00
2018-07-31T06:35:43.347Z,1.90
2018-07-31T06:38:11.855Z,1.97
2018-07-31T06:40:40.358Z,1.90
2018-07-31T06:43:09.039Z,2.23
2018-07-31T06:45:37.562Z,1.77
2018-07-31T06:48:06.078Z,1.87
2018-07-31T06:50:35.358Z,2.10
2018-07-31T06:53:04.018Z,2.07
2018-07-31T06:55:32.567Z,1.60
2018-07-31T06:58:01.196Z,1.80
2018-07-31T07:00:29.745Z,1.57
2018-07-31T07:02:58.245Z,1.90
2018-07-31T07:05:26.792Z,2.07
2018-07-31T07:07:55.314Z,1.70
2018-07-31T07:10:23.900Z,1.50
2018-07-31T07:12:52.464Z,1.23
2018-07-31T07:15:20.973Z,1.47
2018-07-31T07:17:49.496Z,1.80
2018-07-31T07:20:18.005Z,2.10
2018-07-31T07:22:46.522Z,1.80
2018-07-31T07:25:15.036Z,1.53
2018-07-31T07:27:43.562Z,2.13
2018-07-31T07:30:12.091Z,1.23
2018-07-31T07:32:40.625Z,1.63
2018-07-31T07:35:08.839Z,0.80
2018-07-31T07:37:37.517Z,1.10
2018-07-31T07:40:06.120Z,0.80
2018-07-31T07:42:34.702Z,1.97
2018-07-31T07:45:03.280Z,1.03
2018-07-31T07:47:31.809Z,0.83
2018-07-31T07:50:00.350Z,1.07
2018-07-31T07:52:28.875Z,0.90
2018-07-31T07:54:57.381Z,0.90
2018-07-31T07:57:25.966Z,0.70
2018-07-31T07:59:54.518Z,1.30
2018-07-31T08:02:23.068Z,1.17
2018-07-31T08:04:51.754Z,1.00
2018-07-31T08:07:20.298Z,1.03
2018-07-31T08:09:48.809Z,1.47
2018-07-31T08:12:17.352Z,0.90
2018-07-31T08:14:45.548Z,1.00
2018-07-31T08:17:14.100Z,1.10
2018-07-31T08:19:42.632Z,0.83
2018-07-31T08:22:11.228Z,1.50
2018-07-31T08:24:39.774Z,0.83
2018-07-31T08:27:08.286Z,0.90
2018-07-31T08:29:36.817Z,0.53
2018-07-31T08:32:05.355Z,0.70
2018-07-31T08:34:33.988Z,0.70
2018-07-31T08:37:02.500Z,0.93
2018-07-31T08:39:31.720Z,0.90
2018-07-31T08:42:00.254Z,0.47
2018-07-31T08:44:28.768Z,0.80
2018-07-31T08:46:57.288Z,1.73
2018-07-31T08:49:25.825Z,0.60
2018-07-31T08:51:54.392Z,0.60
2018-07-31T08:54:23.118Z,0.57
2018-07-31T08:56:51.703Z,0.53
2018-07-31T08:59:20.348Z,0.50
2018-07-31T09:01:48.684Z,0.57
2018-07-31T09:04:17.304Z,0.53
2018-07-31T09:06:45.825Z,0.80
2018-07-31T09:09:14.331Z,0.70
2018-07-31T09:11:42.866Z,0.70
2018-07-31T09:14:11.964Z,1.07
2018-07-31T09:16:40.498Z,0.80
2018-07-31T09:19:09.060Z,0.43
2018-07-31T09:21:37.661Z,0.50
2018-07-31T09:24:06.182Z,0.97
2018-07-31T09:26:34.708Z,0.60
2018-07-31T09:29:03.245Z,0.40
2018-07-31T09:31:31.796Z,0.60
2018-07-31T09:34:00.317Z,0.70
2018-07-31T09:36:28.856Z,0.40
2018-07-31T09:38:57.412Z,0.73
2018-07-31T09:41:25.956Z,0.30
2018-07-31T09:43:54.474Z,0.40
2018-07-31T09:46:23.385Z,0.50
2018-07-31T09:48:51.944Z,0.70
2018-07-31T09:51:20.459Z,0.60
2018-07-31T09:53:48.977Z,0.63
2018-07-31T09:56:17.619Z,0.50
2018-07-31T09:58:46.135Z,0.70
2018-07-31T10:01:18.640Z,0.37
2018-07-31T10:03:47.761Z,0.60
2018-07-31T10:06:16.669Z,0.80
2018-07-31T10:08:45.280Z,0.40
2018-07-31T10:11:13.788Z,0.77
2018-07-31T10:13:42.319Z,0.50
2018-07-31T10:16:11.073Z,0.77
2018-07-31T10:18:39.600Z,0.60
2018-07-31T10:21:08.375Z,0.40
2018-07-31T10:23:36.932Z,0.60
2018-07-31T10:26:05.356Z,0.50
2018-07-31T10:28:33.908Z,0.40
2018-07-31T10:31:02.485Z,0.83
2018-07-31T10:33:31.009Z,0.40
2018-07-31T10:35:59.520Z,0.60
2018-07-31T10:38:28.056Z,0.40
2018-07-31T10:40:56.604Z,0.50
2018-07-31T10:43:25.140Z,0.60
2018-07-31T10:45:53.739Z,0.50
2018-07-31T10:48:22.419Z,0.60
2018-07-31T10:50:50.951Z,0.50
2018-07-31T10:53:19.493Z,0.40
2018-07-31T10:55:48.034Z,0.40
2018-07-31T10:58:16.631Z,0.53
2018-07-31T11:00:45.215Z,0.60
2018-07-31T11:03:14.046Z,0.40
2018-07-31T11:05:42.552Z,0.50
2018-07-31T11:08:11.126Z,0.60
2018-07-31T11:10:39.662Z,0.50
2018-07-31T11:13:08.229Z,0.43
2018-07-31T11:15:36.809Z,0.40
2018-07-31T11:18:05.373Z,0.50
2018-07-31T11:20:33.899Z,0.80
2018-07-31T11:23:02.156Z,0.40
2018-07-31T11:25:30.776Z,0.60
2018-07-31T11:27:59.340Z,0.40
2018-07-31T11:30:27.880Z,0.63
2018-07-31T11:32:56.574Z,0.50
2018-07-31T11:35:25.181Z,0.50
2018-07-31T11:37:53.713Z,0.40
2018-07-31T11:40:22.226Z,0.30
2018-07-31T11:42:51.433Z,0.40
2018-07-31T11:45:20.036Z,0.50
2018-07-31T11:47:48.620Z,0.50
2018-07-31T11:50:17.234Z,0.50
2018-07-31T11:52:45.729Z,0.50
2018-07-31T11:55:14.358Z,0.50
2018-07-31T11:57:42.892Z,0.50
2018-07-31T12:00:12.933Z,0.50
2018-07-31T12:02:41.735Z,0.50
2018-07-31T12:05:10.286Z,0.60
2018-07-31T12:07:38.969Z,0.50
2018-07-31T12:10:07.681Z,0.40
2018-07-31T12:12:36.189Z,0.60
2018-07-31T12:15:05.486Z,0.83
2018-07-31T12:17:34.027Z,0.50
2018-07-31T12:20:02.667Z,0.30
2018-07-31T12:22:31.206Z,0.60
2018-07-31T12:24:59.711Z,0.50
2018-07-31T12:27:28.348Z,0.40
2018-07-31T12:29:56.928Z,0.60
2018-07-31T12:32:25.537Z,0.50
2018-07-31T12:34:54.132Z,0.43
2018-07-31T12:37:22.682Z,0.50
2018-07-31T12:39:51.304Z,0.40
2018-07-31T12:42:19.855Z,0.60
2018-07-31T12:44:48.089Z,0.60
2018-07-31T12:47:16.646Z,1.17
2018-07-31T12:49:45.161Z,0.60
2018-07-31T12:52:13.710Z,0.80
2018-07-31T12:54:42.226Z,0.50
2018-07-31T12:57:10.752Z,0.50
2018-07-31T12:59:39.301Z,1.00
2018-07-31T13:02:08.112Z,0.50
2018-07-31T13:04:36.624Z,0.93
2018-07-31T13:07:05.146Z,0.50
2018-07-31T13:09:33.681Z,0.60
2018-07-31T13:12:02.386Z,0.80
2018-07-31T13:14:30.932Z,0.60
2018-07-31T13:16:59.469Z,0.60
2018-07-31T13:19:27.999Z,0.40
2018-07-31T13:21:56.643Z,0.40
2018-07-31T13:24:25.424Z,0.40
2018-07-31T13:26:54.075Z,0.40
2018-07-31T13:29:22.639Z,0.50
2018-07-31T13:31:51.164Z,0.60
2018-07-31T13:34:19.687Z,0.60
2018-07-31T13:36:48.230Z,0.73
2018-07-31T13:39:16.821Z,0.40
2018-07-31T13:41:45.338Z,0.53
2018-07-31T13:44:14.062Z,0.37
2018-07-31T13:46:42.399Z,0.40
2018-07-31T13:49:11.249Z,0.97
2018-07-31T13:51:39.801Z,0.50
2018-07-31T13:54:08.286Z,0.40
2018-07-31T13:56:36.504Z,0.50
2018-07-31T13:59:05.034Z,2.93
2018-07-31T14:01:33.561Z,0.80
2018-07-31T14:04:02.150Z,0.40
2018-07-31T14:06:30.740Z,0.30
2018-07-31T14:08:59.299Z,1.03
2018-07-31T14:11:27.825Z,0.50
2018-07-31T14:13:56.783Z,0.80
2018-07-31T14:16:25.296Z,0.40
2018-07-31T14:18:53.915Z,0.43
2018-07-31T14:21:22.484Z,0.50
2018-07-31T14:23:51.020Z,0.80
2018-07-31T14:26:19.545Z,0.67
2018-07-31T14:28:48.129Z,0.67
2018-07-31T14:31:16.598Z,0.50
2018-07-31T14:33:45.101Z,0.50
2018-07-31T14:36:13.646Z,0.40
2018-07-31T14:38:42.161Z,0.67
2018-07-31T14:41:10.728Z,0.43
2018-07-31T14:43:39.295Z,0.60
2018-07-31T14:46:08.075Z,0.67
2018-07-31T14:48:36.658Z,0.60
2018-07-31T14:51:05.209Z,0.67
2018-07-31T14:53:33.742Z,0.50
2018-07-31T14:56:02.314Z,0.80
2018-07-31T14:58:30.862Z,0.87
2018-07-31T15:00:59.352Z,0.40
2018-07-31T15:03:27.868Z,0.40
2018-07-31T15:05:56.799Z,0.60
2018-07-31T15:08:25.332Z,0.77
2018-07-31T15:10:53.917Z,0.60
2018-07-31T15:13:22.451Z,0.50
2018-07-31T15:15:50.887Z,0.53
2018-07-31T15:18:19.405Z,0.50
2018-07-31T15:20:47.988Z,0.57
2018-07-31T15:23:16.509Z,0.73
2018-07-31T15:25:45.020Z,0.60
2018-07-31T15:28:13.558Z,0.70
2018-07-31T15:30:42.080Z,0.50
2018-07-31T15:33:10.597Z,0.73
2018-07-31T15:35:39.327Z,0.50
2018-07-31T15:38:07.848Z,0.50
2018-07-31T15:40:36.424Z,0.70
2018-07-31T15:43:04.930Z,0.80
2018-07-31T15:45:33.465Z,0.60
2018-07-31T15:48:02.031Z,0.60
2018-07-31T15:50:30.554Z,0.47
2018-07-31T15:52:59.565Z,0.40
2018-07-31T15:55:28.273Z,0.50
2018-07-31T15:57:56.833Z,0.50
2018-07-31T16:00:25.422Z,0.50
2018-07-31T16:02:53.867Z,0.47
2018-07-31T16:05:22.496Z,1.07
2018-07-31T16:07:51.204Z,0.77
2018-07-31T16:10:19.837Z,0.77
2018-07-31T16:12:48.383Z,0.90
2018-07-31T16:15:16.605Z,7.17
2018-07-31T16:17:45.200Z,1.23
2018-07-31T16:20:13.737Z,0.73
2018-07-31T16:22:42.287Z,0.90
2018-07-31T16:25:10.826Z,0.60
2018-07-31T16:27:39.542Z,0.50
2018-07-31T16:30:08.214Z,0.70
2018-07-31T16:32:36.725Z,0.50
2018-07-31T16:35:05.329Z,0.60
2018-07-31T16:37:33.851Z,0.60
2018-07-31T16:40:02.396Z,0.70
2018-07-31T16:42:30.953Z,0.60
2018-07-31T16:44:59.480Z,1.10
2018-07-31T16:47:28.024Z,2.07
2018-07-31T16:49:56.708Z,3.90
2018-07-31T16:52:25.237Z,1.13
2018-07-31T16:54:53.992Z,1.00
2018-07-31T16:57:22.701Z,2.30
2018-07-31T16:59:51.283Z,1.07
2018-07-31T17:02:19.826Z,1.63
2018-07-31T17:04:48.385Z,1.37
2018-07-31T17:07:17.323Z,1.50
2018-07-31T17:09:45.568Z,1.40
2018-07-31T17:12:14.121Z,1.30
2018-07-31T17:14:42.729Z,1.70
2018-07-31T17:17:11.328Z,0.90
2018-07-31T17:19:39.990Z,1.37
2018-07-31T17:22:08.584Z,1.00
2018-07-31T17:24:37.249Z,1.50
2018-07-31T17:27:06.079Z,1.17
2018-07-31T17:29:34.593Z,1.30
2018-07-31T17:32:03.218Z,1.00
2018-07-31T17:34:31.769Z,1.07
2018-07-31T17:37:00.267Z,1.67
2018-07-31T17:39:28.781Z,1.20
2018-07-31T17:41:57.335Z,1.40
2018-07-31T17:44:25.965Z,1.70
2018-07-31T17:46:54.487Z,1.30
2018-07-31T17:49:22.826Z,1.40
2018-07-31T17:51:51.366Z,1.27
2018-07-31T17:54:19.914Z,1.07
2018-07-31T17:56:48.444Z,0.70
2018-07-31T17:59:17.000Z,2.20
2018-07-31T18:01:45.535Z,1.37
2018-07-31T18:04:14.071Z,1.40
2018-07-31T18:06:42.708Z,1.37
2018-07-31T18:09:11.881Z,1.70
2018-07-31T18:11:41.146Z,1.40
2018-07-31T18:14:09.392Z,1.20
2018-07-31T18:16:38.238Z,0.90
2018-07-31T18:19:07.365Z,1.00
2018-07-31T18:21:35.898Z,1.10
2018-07-31T18:24:05.027Z,1.73
2018-07-31T18:26:33.608Z,1.40
2018-07-31T18:29:02.176Z,1.40
2018-07-31T18:31:30.733Z,1.30
2018-07-31T18:33:59.239Z,1.20
2018-07-31T18:36:28.046Z,1.00
2018-07-31T18:38:56.617Z,1.10
2018-07-31T18:41:25.270Z,1.33
2018-07-31T18:43:53.739Z,0.97
2018-07-31T18:46:22.257Z,1.40
2018-07-31T18:48:50.792Z,3.87
2018-07-31T18:51:19.449Z,1.50
2018-07-31T18:53:47.951Z,1.27
2018-07-31T18:56:16.478Z,0.90
2018-07-31T18:58:45.011Z,1.90
2018-07-31T19:01:13.766Z,0.93
2018-07-31T19:03:42.292Z,1.07
2018-07-31T19:06:10.785Z,1.20
2018-07-31T19:08:39.278Z,1.60
2018-07-31T19:11:07.845Z,1.43
2018-07-31T19:13:36.707Z,1.37
2018-07-31T19:16:06.062Z,3.00
2018-07-31T19:18:34.349Z,1.30
2018-07-31T19:21:02.588Z,1.23
2018-07-31T19:23:31.118Z,1.63
2018-07-31T19:25:59.645Z,1.27
2018-07-31T19:28:28.301Z,1.57
2018-07-31T19:30:56.805Z,1.10
2018-07-31T19:33:25.374Z,1.30
2018-07-31T19:35:53.896Z,1.57
2018-07-31T19:38:22.422Z,1.57
2018-07-31T19:40:50.973Z,1.50
2018-07-31T19:43:19.495Z,1.90
2018-07-31T19:45:47.999Z,1.60
2018-07-31T19:48:16.546Z,2.00
2018-07-31T19:50:45.163Z,2.10
2018-07-31T19:53:13.728Z,1.87
2018-07-31T19:55:42.237Z,1.10
2018-07-31T19:58:10.760Z,1.47
2018-07-31T20:00:39.312Z,2.03
2018-07-31T20:03:07.838Z,1.63
2018-07-31T20:05:36.338Z,1.33
2018-07-31T20:08:04.895Z,1.40
2018-07-31T20:10:33.541Z,2.00
2018-07-31T20:13:02.223Z,1.07
2018-07-31T20:15:30.813Z,1.13
2018-07-31T20:17:59.497Z,1.83
2018-07-31T20:20:28.028Z,1.77
2018-07-31T20:22:56.519Z,1.67
2018-07-31T20:25:25.102Z,1.50
2018-07-31T20:27:53.620Z,1.53
2018-07-31T20:30:22.171Z,1.30
2018-07-31T20:32:50.718Z,1.13
2018-07-31T20:35:19.236Z,1.77
2018-07-31T20:37:47.452Z,1.80
2018-07-31T20:40:16.021Z,1.30
2018-07-31T20:42:44.576Z,0.87
2018-07-31T20:45:13.157Z,1.20
2018-07-31T20:47:41.680Z,1.07
2018-07-31T20:50:10.272Z,1.20
2018-07-31T20:52:38.829Z,1.30
2018-07-31T20:55:07.395Z,2.20
2018-07-31T20:57:35.935Z,1.70
2018-07-31T21:00:05.351Z,1.73
2018-07-31T21:02:34.028Z,1.40
2018-07-31T21:05:02.694Z,1.40
2018-07-31T21:07:31.227Z,1.43
2018-07-31T21:09:59.754Z,1.60
2018-07-31T21:12:28.448Z,1.40
2018-07-31T21:14:57.031Z,1.60
2018-07-31T21:17:25.540Z,1.70
2018-07-31T21:19:54.045Z,0.90
2018-07-31T21:22:22.674Z,1.90
2018-07-31T21:24:51.229Z,1.20
2018-07-31T21:27:20.337Z,1.20
2018-07-31T21:29:48.836Z,1.90
2018-07-31T21:32:17.362Z,1.23
2018-07-31T21:34:45.915Z,1.63
2018-07-31T21:37:14.434Z,1.70
2018-07-31T21:39:42.958Z,1.13
2018-07-31T21:42:11.481Z,1.67
2018-07-31T21:44:39.991Z,1.50
2018-07-31T21:47:08.562Z,1.33
2018-07-31T21:49:37.096Z,1.50
2018-07-31T21:52:05.641Z,1.60
2018-07-31T21:54:34.176Z,1.40
2018-07-31T21:57:02.723Z,1.30
2018-07-31T21:59:31.574Z,1.90
2018-07-31T22:02:00.178Z,0.90
2018-07-31T22:04:28.810Z,2.00
2018-07-31T22:06:57.332Z,2.07
2018-07-31T22:09:31.739Z,2.23
2018-07-31T22:12:00.824Z,1.50
2018-07-31T22:14:29.361Z,1.77
2018-07-31T22:16:57.885Z,1.33
2018-07-31T22:19:26.483Z,1.70
2018-07-31T22:21:55.035Z,1.60
2018-07-31T22:24:23.595Z,1.37
2018-07-31T22:26:52.111Z,0.90
2018-07-31T22:29:20.622Z,1.53
2018-07-31T22:31:49.291Z,1.73
2018-07-31T22:34:17.822Z,1.40
2018-07-31T22:36:46.388Z,1.53
2018-07-31T22:39:14.956Z,2.33
2018-07-31T22:41:43.481Z,1.83
2018-07-31T22:44:11.998Z,1.60
2018-07-31T22:46:40.532Z,1.63
2018-07-31T22:49:09.062Z,1.80
2018-07-31T22:51:37.571Z,1.53
2018-07-31T22:54:06.136Z,2.03
2018-07-31T22:56:34.680Z,2.47
2018-07-31T22:59:03.250Z,2.23
2018-07-31T23:01:31.723Z,1.93
2018-07-31T23:04:00.372Z,3.90
2018-07-31T23:06:28.908Z,2.40
2018-07-31T23:08:57.513Z,2.47
2018-07-31T23:11:26.095Z,1.73
2018-07-31T23:13:54.611Z,1.87
2018-07-31T23:16:23.153Z,1.83
2018-07-31T23:18:51.692Z,1.93
2018-07-31T23:21:20.293Z,1.77
2018-07-31T23:23:48.822Z,1.97
2018-07-31T23:26:17.432Z,2.70
2018-07-31T23:28:45.921Z,2.00
2018-07-31T23:31:14.474Z,1.87
2018-07-31T23:33:42.992Z,2.10
2018-07-31T23:36:11.555Z,2.90
2018-07-31T23:38:40.104Z,1.90
2018-07-31T23:41:08.654Z,2.57
2018-07-31T23:43:37.196Z,2.17
2018-07-31T23:46:05.784Z,2.20
2018-07-31T23:48:34.403Z,2.40
2018-07-31T23:51:02.911Z,2.80
2018-07-31T23:53:31.441Z,2.70
2018-07-31T23:55:59.956Z,2.17
2018-07-31T23:58:28.485Z,2.83
